Time;durP1;ratioP1;P1;durP2;ratioP2;P2;SDS_P1;SDS_P2;PMS_P1;PMS_P2;Temp;Humidity;BMP_temperature;BMP_pressure;BME280_temperature;BME280_humidity;BME280_pressure;Samples;Min_cycle;Max_cycle;Signal;HPM_P1;HPM_P2
2022/09/23 00:02:09;;;;;;;;;;;;;;;11.54;57.38;100293.06;4462262;32;19977;-83
2022/09/23 00:04:36;;;;;;;;;;;;;;;11.68;57.11;100293.31;4462203;32;20344;-82
2022/09/23 00:07:03;;;;;;;;;;;;;;;11.46;57.34;100290.34;4462448;32;19980;-82
2022/09/23 00:09:30;;;;;;;;;;;;;;;11.63;56.93;100299.31;4462652;32;20003;-83
2022/09/23 00:11:57;;;;;;;;;;;;;;;11.82;56.12;100294.47;4455139;32;19983;-83
2022/09/23 00:14:23;;;;;;;;;;;;;;;11.68;56.96;100288.13;4415654;32;19997;-82
2022/09/23 00:16:50;;;;;;;;;;;;;;;11.49;57.39;100287.81;4413668;32;20000;-82
2022/09/23 00:19:17;;;;;;;;;;;;;;;11.07;58.87;100285.19;4415934;32;19994;-83
2022/09/23 00:21:44;;;;;;;;;;;;;;;11.24;57.77;100288.16;4415990;32;19970;-82
2022/09/23 00:24:10;;;;;;;;;;;;;;;11.60;56.63;100282.81;4415995;32;20004;-82
2022/09/23 00:26:37;;;;;;;;;;;;;;;11.82;55.84;100282.38;4415931;32;19982;-83
2022/09/23 00:29:04;;;;;;;;;;;;;;;11.42;57.62;100278.13;4416372;32;19998;-82
2022/09/23 00:31:31;;;;;;;;;;;;;;;11.33;57.83;100280.56;4415475;32;20357;-82
2022/09/23 00:33:59;;;;;;;;;;;;;;;11.33;57.61;100278.84;4400725;32;20040;-82
2022/09/23 00:36:26;;;;;;;;;;;;;;;11.11;58.59;100267.19;4401170;32;20089;-82
2022/09/23 00:38:54;;;;;;;;;;;;;;;10.96;58.72;100268.56;4100712;32;10023687;-82
2022/09/23 00:41:21;;;;;;;;;;;;;;;11.35;57.53;100271.97;4418161;32;19989;-83
2022/09/23 00:43:48;;;;;;;;;;;;;;;11.55;56.75;100264.59;4431559;32;19989;-83
2022/09/23 00:46:19;;;;;;;;;;;;;;;11.01;58.42;100260.06;4431200;32;19973;-82
2022/09/23 00:48:47;;;;;;;;;;;;;;;11.08;58.20;100256.75;4417338;32;20322;-83
2022/09/23 00:51:16;;;;;;;;;;;;;;;11.47;56.85;100260.97;4432937;32;19977;-81
2022/09/23 00:53:44;;;;;;;;;;;;;;;10.94;58.17;100258.16;4446240;32;20016;-82
2022/09/23 00:56:11;;;;;;;;;;;;;;;10.68;58.97;100255.88;4446913;32;19990;-82
2022/09/23 00:58:38;;;;;;;;;;;;;;;10.99;57.87;100251.38;4432672;32;20003;-82
2022/09/23 01:01:05;;;;;;;;;;;;;;;11.44;56.38;100255.72;4431766;32;20021;-83
2022/09/23 01:03:32;;;;;;;;;;;;;;;11.36;56.29;100258.19;4447230;32;19973;-83
2022/09/23 01:05:59;;;;;;;;;;;;;;;11.38;56.53;100263.38;4446067;32;20020;-82
2022/09/23 01:08:26;;;;;;;;;;;;;;;10.87;58.27;100261.47;4432188;32;19990;-83
2022/09/23 01:11:09;;;;;;;;;;;;;;;11.03;57.65;100263.53;4432127;32;19989;-83
2022/09/23 01:13:51;;;;;;;;;;;;;;;10.94;57.36;100263.34;4429836;32;19981;-83
2022/09/23 01:16:23;;;;;;;;;;;;;;;11.13;57.07;100260.28;4446614;32;20378;-83
2022/09/23 01:18:53;;;;;;;;;;;;;;;11.24;56.56;100251.88;4445524;32;20334;-83
2022/09/23 01:21:36;;;;;;;;;;;;;;;10.97;57.18;100253.03;4432434;32;19995;-82
2022/09/23 01:24:15;;;;;;;;;;;;;;;10.93;57.66;100261.59;4446188;32;20483;-83
2022/09/23 01:26:45;;;;;;;;;;;;;;;10.96;57.19;100265.97;4446549;32;19989;-82
2022/09/23 01:29:17;;;;;;;;;;;;;;;10.82;57.77;100263.09;4445703;32;20042;-82
2022/09/23 01:31:47;;;;;;;;;;;;;;;11.05;57.34;100264.47;3969544;32;10011118;-82
2022/09/23 01:34:16;;;;;;;;;;;;;;;10.86;57.73;100259.72;4422433;32;20378;-83
2022/09/23 01:36:46;;;;;;;;;;;;;;;10.79;57.60;100263.91;4432846;32;19988;-82
2022/09/23 01:39:15;;;;;;;;;;;;;;;11.01;57.09;100261.75;4432535;32;19985;-83
2022/09/23 01:41:46;;;;;;;;;;;;;;;10.71;58.24;100266.31;4431644;32;20008;-83
2022/09/23 01:44:33;;;;;;;;;;;;;;;10.64;58.60;100264.44;4446335;32;19985;-83
2022/09/23 01:47:07;;;;;;;;;;;;;;;10.90;57.48;100266.72;4446562;32;19978;-83
2022/09/23 01:49:54;;;;;;;;;;;;;;;10.63;58.62;100261.81;4431008;32;19982;-82
2022/09/23 01:52:39;;;;;;;;;;;;;;;10.94;57.59;100263.34;4440226;32;19993;-82
2022/09/23 01:55:09;;;;;;;;;;;;;;;10.90;57.59;100256.34;4431142;32;19968;-82
2022/09/23 01:57:39;;;;;;;;;;;;;;;10.66;57.93;100255.00;4448218;32;19977;-82
2022/09/23 02:00:08;;;;;;;;;;;;;;;10.43;58.89;100263.94;4431660;32;19989;-83
2022/09/23 02:02:43;;;;;;;;;;;;;;;10.66;58.27;100259.31;4434026;32;20049;-83
2022/09/23 02:05:11;;;;;;;;;;;;;;;10.71;58.03;100252.50;4447526;32;19973;-83
2022/09/23 02:07:58;;;;;;;;;;;;;;;10.79;57.66;100257.84;4433576;32;19989;-83
2022/09/23 02:10:31;;;;;;;;;;;;;;;10.25;59.37;100262.62;4433962;32;19977;-83
2022/09/23 02:12:58;;;;;;;;;;;;;;;10.41;58.93;100257.87;4434037;32;20050;-83
2022/09/23 02:15:28;;;;;;;;;;;;;;;10.46;58.92;100258.81;4448015;32;19992;-82
2022/09/23 02:17:57;;;;;;;;;;;;;;;10.53;58.72;100255.56;4447060;32;19979;-82
2022/09/23 02:20:27;;;;;;;;;;;;;;;10.34;59.23;100251.66;4434282;32;19973;-82
2022/09/23 02:22:55;;;;;;;;;;;;;;;10.22;59.14;100259.97;4408064;32;20007;-83
2022/09/23 02:25:24;;;;;;;;;;;;;;;10.18;59.54;100252.97;4433902;32;20459;-83
2022/09/23 02:27:55;;;;;;;;;;;;;;;10.44;58.66;100256.22;4433899;32;19973;-83
2022/09/23 02:30:26;;;;;;;;;;;;;;;10.05;59.51;100260.38;4447312;32;19977;-82
2022/09/23 02:32:56;;;;;;;;;;;;;;;10.34;58.68;100248.19;4421418;32;20031;-83
2022/09/23 02:35:24;;;;;;;;;;;;;;;10.18;59.05;100247.81;4425144;32;19993;-82
2022/09/23 02:38:09;;;;;;;;;;;;;;;10.33;58.10;100251.63;4446175;32;20028;-83
2022/09/23 02:40:38;;;;;;;;;;;;;;;10.24;58.52;100253.13;4448030;32;20663;-82
2022/09/23 02:43:08;;;;;;;;;;;;;;;10.45;58.02;100257.09;4447343;32;20375;-82
2022/09/23 02:45:37;;;;;;;;;;;;;;;10.54;57.49;100252.12;4445170;32;19977;-83
2022/09/23 02:48:09;;;;;;;;;;;;;;;10.52;57.81;100253.78;4434098;32;19969;-83
2022/09/23 02:50:36;;;;;;;;;;;;;;;10.39;58.74;100255.22;4432699;32;20779;-82
2022/09/23 02:53:03;;;;;;;;;;;;;;;10.47;57.70;100260.59;4434193;32;20008;-82
2022/09/23 02:55:31;;;;;;;;;;;;;;;10.50;57.77;100260.66;4447438;32;19995;-83
2022/09/23 02:58:01;;;;;;;;;;;;;;;10.33;57.68;100256.78;4433490;32;19978;-83
2022/09/23 03:00:35;;;;;;;;;;;;;;;10.35;58.40;100260.31;4432052;32;19985;-82
2022/09/23 03:03:02;;;;;;;;;;;;;;;10.40;57.64;100258.69;4433540;32;20278;-82
2022/09/23 03:05:30;;;;;;;;;;;;;;;10.33;58.29;100251.63;4448103;32;19989;-83
2022/09/23 03:08:11;;;;;;;;;;;;;;;10.42;57.49;100249.25;4420023;32;20009;-82
2022/09/23 03:11:03;;;;;;;;;;;;;;;10.41;57.32;100245.78;4432612;32;20298;-82
2022/09/23 03:14:15;;;;;;;;;;;;;;;10.23;57.95;100253.94;4441884;32;19981;-82
2022/09/23 03:16:46;;;;;;;;;;;;;;;10.15;58.46;100246.87;4398966;32;20013;-82
2022/09/23 03:19:22;;;;;;;;;;;;;;;10.39;57.76;100256.94;4383979;32;20003;-82
2022/09/23 03:21:55;;;;;;;;;;;;;;;10.17;58.45;100256.38;4429090;32;19977;-83
2022/09/23 03:24:22;;;;;;;;;;;;;;;9.88;59.39;100255.66;4433268;32;19993;-83
2022/09/23 03:26:49;;;;;;;;;;;;;;;9.81;59.41;100255.47;4433390;32;19977;-83
2022/09/23 03:29:16;;;;;;;;;;;;;;;9.84;59.30;100260.72;4433474;32;19997;-82
2022/09/23 03:31:43;;;;;;;;;;;;;;;9.89;59.48;100256.53;4432913;32;19985;-82
2022/09/23 03:34:15;;;;;;;;;;;;;;;10.27;58.00;100256.63;4433322;32;20590;-83
2022/09/23 03:36:56;;;;;;;;;;;;;;;10.31;57.77;100261.06;4433570;32;19989;-82
2022/09/23 03:39:25;;;;;;;;;;;;;;;10.18;58.31;100258.16;4410862;32;20349;-83
2022/09/23 03:41:52;;;;;;;;;;;;;;;10.35;57.40;100261.16;4427523;32;20021;-83
2022/09/23 03:44:20;;;;;;;;;;;;;;;9.96;58.46;100261.06;4395922;32;20341;-83
2022/09/23 03:46:50;;;;;;;;;;;;;;;10.15;58.19;100252.03;4418133;32;20330;-82
2022/09/23 03:49:18;;;;;;;;;;;;;;;9.92;58.66;100251.44;4424842;32;20472;-84
2022/09/23 03:51:45;;;;;;;;;;;;;;;10.30;57.53;100255.00;4395266;32;20832;-83
2022/09/23 03:54:12;;;;;;;;;;;;;;;9.82;58.96;100254.63;4401460;32;19994;-83
2022/09/23 03:56:39;;;;;;;;;;;;;;;9.99;58.71;100255.94;4401454;32;19982;-82
2022/09/23 03:59:06;;;;;;;;;;;;;;;10.15;58.05;100252.91;4421095;32;20111;-83
2022/09/23 04:01:33;;;;;;;;;;;;;;;10.23;57.89;100253.94;4431558;32;20251;-82
2022/09/23 04:04:00;;;;;;;;;;;;;;;9.99;58.90;100248.19;4420192;32;19999;-84
2022/09/23 04:06:26;;;;;;;;;;;;;;;10.08;58.58;100256.16;4419113;32;19974;-82
2022/09/23 04:08:53;;;;;;;;;;;;;;;9.97;59.14;100261.06;4416364;32;19962;-82
2022/09/23 04:11:20;;;;;;;;;;;;;;;10.12;58.74;100257.13;4416262;32;19974;-82
2022/09/23 04:13:47;;;;;;;;;;;;;;;10.21;58.33;100258.22;4424883;32;20048;-83
2022/09/23 04:16:14;;;;;;;;;;;;;;;10.08;59.27;100261.31;4411505;32;20000;-83
2022/09/23 04:18:41;;;;;;;;;;;;;;;10.01;59.40;100264.59;4418117;32;19977;-83
2022/09/23 04:21:08;;;;;;;;;;;;;;;10.04;59.04;100259.50;4418013;32;20428;-84
2022/09/23 04:23:35;;;;;;;;;;;;;;;9.98;59.83;100260.22;4416192;32;20799;-83
2022/09/23 04:26:04;;;;;;;;;;;;;;;9.99;59.59;100266.31;4416218;32;20000;-84
2022/09/23 04:28:33;;;;;;;;;;;;;;;9.61;60.78;100263.59;4416004;32;20023;-82
2022/09/23 04:31:03;;;;;;;;;;;;;;;9.61;60.83;100262.72;4415946;32;19977;-83
2022/09/23 04:33:30;;;;;;;;;;;;;;;9.62;60.39;100260.16;4416754;32;19992;-83
2022/09/23 04:35:57;;;;;;;;;;;;;;;9.51;60.77;100261.59;4415913;32;19985;-82
2022/09/23 04:38:24;;;;;;;;;;;;;;;9.86;60.03;100259.03;4416528;32;19978;-82
2022/09/23 04:40:51;;;;;;;;;;;;;;;9.74;60.61;100265.66;4416027;32;20671;-83
2022/09/23 04:43:21;;;;;;;;;;;;;;;9.50;61.55;100272.75;4416261;32;19977;-83
2022/09/23 04:46:14;;;;;;;;;;;;;;;9.82;60.38;100270.16;4414453;32;19986;-82
2022/09/23 04:48:41;;;;;;;;;;;;;;;9.96;59.26;100277.44;4420356;32;20701;-84
2022/09/23 04:51:12;;;;;;;;;;;;;;;10.08;59.34;100282.03;4416775;32;19974;-82
2022/09/23 04:53:39;;;;;;;;;;;;;;;10.15;58.85;100273.59;4415721;32;20347;-83
2022/09/23 04:56:08;;;;;;;;;;;;;;;10.21;58.69;100273.75;4402576;32;19984;-84
2022/09/23 04:58:35;;;;;;;;;;;;;;;10.07;59.24;100275.09;4425373;32;19973;-83
2022/09/23 05:01:09;;;;;;;;;;;;;;;10.18;59.41;100275.41;4430657;32;19978;-82
2022/09/23 05:03:36;;;;;;;;;;;;;;;10.20;59.48;100282.31;4431637;32;20342;-83
2022/09/23 05:06:02;;;;;;;;;;;;;;;10.19;59.65;100282.31;4431089;32;20697;-83
2022/09/23 05:08:30;;;;;;;;;;;;;;;10.34;59.30;100290.47;4431179;32;19969;-83
2022/09/23 05:10:57;;;;;;;;;;;;;;;10.18;60.10;100288.31;4429963;32;20323;-84
2022/09/23 05:13:24;;;;;;;;;;;;;;;10.44;59.04;100296.75;4431400;32;20037;-83
2022/09/23 05:16:03;;;;;;;;;;;;;;;10.52;58.62;100296.91;4433540;32;19999;-83
2022/09/23 05:18:31;;;;;;;;;;;;;;;10.32;59.87;100296.44;4446845;32;19977;-83
2022/09/23 05:20:57;;;;;;;;;;;;;;;10.62;58.95;100297.16;4446113;32;19992;-83
2022/09/23 05:23:24;;;;;;;;;;;;;;;10.66;58.98;100292.97;4447089;32;20074;-83
2022/09/23 05:25:56;;;;;;;;;;;;;;;10.66;59.05;100296.41;4446649;32;20018;-83
2022/09/23 05:28:22;;;;;;;;;;;;;;;10.90;58.64;100295.22;4446081;32;19974;-83
2022/09/23 05:30:49;;;;;;;;;;;;;;;10.63;59.92;100296.34;4444138;32;20341;-83
2022/09/23 05:33:16;;;;;;;;;;;;;;;10.81;59.37;100300.19;4446255;32;20282;-84
2022/09/23 05:35:46;;;;;;;;;;;;;;;10.52;61.11;100300.38;4446547;32;20329;-84
2022/09/23 05:38:15;;;;;;;;;;;;;;;10.86;59.78;100302.03;4446822;32;19989;-83
2022/09/23 05:40:42;;;;;;;;;;;;;;;10.92;59.51;100304.75;4444650;32;20000;-83
2022/09/23 05:43:09;;;;;;;;;;;;;;;11.02;59.33;100308.44;4446458;32;19981;-82
2022/09/23 05:45:36;;;;;;;;;;;;;;;10.92;60.02;100301.31;4446665;32;19981;-82
2022/09/23 05:48:03;;;;;;;;;;;;;;;11.09;59.24;100302.53;4445653;32;19988;-83
2022/09/23 05:50:31;;;;;;;;;;;;;;;11.37;58.92;100300.53;4445368;32;20439;-83
2022/09/23 05:52:58;;;;;;;;;;;;;;;11.18;59.83;100294.97;4446440;32;20026;-83
2022/09/23 05:55:25;;;;;;;;;;;;;;;11.44;58.85;100296.34;4446217;32;20008;-84
2022/09/23 05:57:52;;;;;;;;;;;;;;;11.40;58.98;100300.59;4443475;32;19981;-83
2022/09/23 06:00:19;;;;;;;;;;;;;;;11.62;58.40;100296.69;4445764;32;19976;-83
2022/09/23 06:02:47;;;;;;;;;;;;;;;11.36;60.05;100298.78;4446027;32;19977;-83
2022/09/23 06:05:15;;;;;;;;;;;;;;;11.73;58.44;100297.75;4446111;32;19985;-84
2022/09/23 06:07:41;;;;;;;;;;;;;;;11.90;57.85;100299.81;4445848;32;19977;-84
2022/09/23 06:10:08;;;;;;;;;;;;;;;11.64;59.96;100293.25;4446032;32;19973;-83
2022/09/23 06:12:35;;;;;;;;;;;;;;;11.71;59.73;100295.97;4446080;32;20727;-83
2022/09/23 06:15:02;;;;;;;;;;;;;;;11.93;58.98;100305.94;4445509;32;20372;-84
2022/09/23 06:17:29;;;;;;;;;;;;;;;12.00;58.09;100302.63;4445914;32;19977;-84
2022/09/23 06:19:56;;;;;;;;;;;;;;;12.21;58.28;100298.63;4444924;32;19996;-85
2022/09/23 06:22:23;;;;;;;;;;;;;;;12.21;58.83;100301.22;4457469;32;20016;-83
2022/09/23 06:24:50;;;;;;;;;;;;;;;12.27;59.18;100298.75;4445960;32;19985;-84
2022/09/23 06:27:17;;;;;;;;;;;;;;;12.48;58.00;100299.09;4445320;32;20310;-83
2022/09/23 06:29:43;;;;;;;;;;;;;;;12.39;58.42;100290.28;4446817;32;20034;-82
2022/09/23 06:32:10;;;;;;;;;;;;;;;12.57;58.86;100304.44;4445645;32;19973;-81
2022/09/23 06:34:38;;;;;;;;;;;;;;;12.59;58.99;100306.16;4445567;32;19988;-81
2022/09/23 06:37:17;;;;;;;;;;;;;;;12.76;58.66;100304.69;4445176;32;19995;-81
2022/09/23 06:39:46;;;;;;;;;;;;;;;12.69;58.24;100303.72;4445616;32;20004;-81
2022/09/23 06:42:14;;;;;;;;;;;;;;;12.72;59.08;100310.69;4446758;32;20075;-81
2022/09/23 06:44:41;;;;;;;;;;;;;;;12.97;58.78;100310.19;4447680;32;20382;-82
2022/09/23 06:47:08;;;;;;;;;;;;;;;12.96;59.18;100318.00;4448054;32;20019;-82
2022/09/23 06:49:35;;;;;;;;;;;;;;;13.25;56.79;100310.59;4446319;32;20322;-81
2022/09/23 06:52:03;;;;;;;;;;;;;;;13.31;57.00;100315.88;4447432;32;19977;-82
2022/09/23 06:54:30;;;;;;;;;;;;;;;13.23;58.13;100307.94;4447920;32;19996;-81
2022/09/23 06:56:57;;;;;;;;;;;;;;;13.65;57.67;100300.66;4447708;32;20310;-81
2022/09/23 06:59:24;;;;;;;;;;;;;;;14.13;55.24;100310.69;4448047;32;19978;-81
2022/09/23 07:01:51;;;;;;;;;;;;;;;14.51;54.26;100304.09;4447126;32;20030;-80
2022/09/23 07:04:18;;;;;;;;;;;;;;;14.63;53.75;100301.59;4446148;32;19981;-80
2022/09/23 07:06:45;;;;;;;;;;;;;;;15.20;54.35;100294.97;4457038;32;19977;-82
2022/09/23 07:09:11;;;;;;;;;;;;;;;15.49;52.33;100302.03;4451871;32;20837;-80
2022/09/23 07:11:38;;;;;;;;;;;;;;;15.94;52.55;100300.44;4447763;32;19977;-80
2022/09/23 07:14:05;;;;;;;;;;;;;;;16.27;51.25;100305.72;4447524;32;19985;-80
2022/09/23 07:16:32;;;;;;;;;;;;;;;16.92;51.87;100305.66;4447943;32;19977;-81
2022/09/23 07:18:59;;;;;;;;;;;;;;;16.68;49.67;100302.16;4447787;32;20292;-81
2022/09/23 07:21:26;;;;;;;;;;;;;;;17.18;49.60;100298.59;4447374;32;20422;-81
2022/09/23 07:23:54;;;;;;;;;;;;;;;17.25;50.44;100307.28;4447628;32;20476;-80
2022/09/23 07:26:21;;;;;;;;;;;;;;;17.14;49.57;100311.72;4447015;32;20018;-81
2022/09/23 07:28:55;;;;;;;;;;;;;;;17.94;49.14;100307.00;4447193;32;20310;-81
2022/09/23 07:31:22;;;;;;;;;;;;;;;18.26;48.18;100304.13;4447679;32;20307;-81
2022/09/23 07:34:05;;;;;;;;;;;;;;;18.55;47.05;100309.13;4457426;32;19980;-81
2022/09/23 07:36:32;;;;;;;;;;;;;;;18.69;44.39;100316.84;4448565;32;20454;-80
2022/09/23 07:39:02;;;;;;;;;;;;;;;18.58;46.01;100311.72;4447430;32;19973;-79
2022/09/23 07:41:30;;;;;;;;;;;;;;;18.66;45.13;100308.16;4447510;32;19981;-80
2022/09/23 07:43:58;;;;;;;;;;;;;;;18.92;45.42;100306.19;4447367;32;19988;-81
2022/09/23 07:46:26;;;;;;;;;;;;;;;18.97;45.07;100309.62;4458143;32;19995;-81
2022/09/23 07:48:53;;;;;;;;;;;;;;;19.57;45.91;100305.41;4446398;32;19993;-82
2022/09/23 07:51:25;;;;;;;;;;;;;;;19.67;44.54;100302.66;4446232;32;19989;-82
2022/09/23 07:53:52;;;;;;;;;;;;;;;19.39;45.09;100301.25;4446391;32;19985;-83
2022/09/23 07:56:20;;;;;;;;;;;;;;;19.33;45.18;100302.19;4445414;32;20000;-83
2022/09/23 07:58:59;;;;;;;;;;;;;;;19.43;43.88;100302.94;4445808;32;19985;-82
2022/09/23 08:01:28;;;;;;;;;;;;;;;19.97;43.17;100306.62;4459222;32;19989;-84
2022/09/23 08:03:56;;;;;;;;;;;;;;;19.67;46.27;100307.06;4447313;32;20036;-83
2022/09/23 08:06:22;;;;;;;;;;;;;;;20.03;43.03;100303.03;4447206;32;19982;-82
2022/09/23 08:08:49;;;;;;;;;;;;;;;20.06;42.92;100305.59;4446617;32;19996;-83
2022/09/23 08:11:19;;;;;;;;;;;;;;;20.15;41.83;100309.84;4438934;32;19989;-83
2022/09/23 08:13:46;;;;;;;;;;;;;;;20.58;43.65;100303.91;4446625;32;20051;-83
2022/09/23 08:16:13;;;;;;;;;;;;;;;20.03;42.87;100299.53;4447198;32;19969;-84
2022/09/23 08:18:44;;;;;;;;;;;;;;;20.65;41.61;100308.19;4447426;32;20027;-84
2022/09/23 08:21:11;;;;;;;;;;;;;;;20.94;41.12;100304.16;4446800;32;20003;-86
2022/09/23 08:23:38;;;;;;;;;;;;;;;20.56;39.83;100305.72;4445412;32;19980;-88
2022/09/23 08:26:19;;;;;;;;;;;;;;;20.70;40.58;100292.31;4445438;32;19977;-83
2022/09/23 08:28:48;;;;;;;;;;;;;;;20.53;42.01;100304.00;4411190;32;19974;-87
2022/09/23 08:31:15;;;;;;;;;;;;;;;20.74;41.65;100296.59;4405591;32;20762;-90
2022/09/23 08:33:43;;;;;;;;;;;;;;;20.56;41.06;100300.44;4399564;32;20280;-87
2022/09/23 08:36:10;;;;;;;;;;;;;;;20.11;44.75;100292.41;4401725;32;19974;-88
2022/09/23 08:38:36;;;;;;;;;;;;;;;20.41;41.47;100297.16;4401548;32;19979;-91
2022/09/23 08:41:24;;;;;;;;;;;;;;;20.75;42.27;100296.59;4400368;32;20024;-89
2022/09/23 08:43:55;;;;;;;;;;;;;;;20.82;39.63;100287.69;4385049;32;19974;-85
2022/09/23 08:46:26;;;;;;;;;;;;;;;20.81;39.73;100296.47;4411294;32;19993;-88
2022/09/23 08:48:53;;;;;;;;;;;;;;;20.69;40.26;100296.72;4408409;32;20015;-86
2022/09/23 08:51:34;;;;;;;;;;;;;;;20.33;41.92;100298.19;4407013;32;19970;-87
2022/09/23 08:54:01;;;;;;;;;;;;;;;20.80;41.02;100294.72;4416317;32;20000;-88
2022/09/23 08:56:29;;;;;;;;;;;;;;;20.54;41.49;100295.19;4412677;32;20013;-89
2022/09/23 08:59:09;;;;;;;;;;;;;;;20.99;40.87;100294.37;4398924;32;19991;-91
2022/09/23 09:01:43;;;;;;;;;;;;;;;20.94;40.84;100289.22;4408251;32;20051;-89
2022/09/23 09:04:26;;;;;;;;;;;;;;;21.13;41.07;100290.59;4412019;32;20465;-90
2022/09/23 09:07:03;;;;;;;;;;;;;;;21.51;40.33;100288.09;4407751;32;19984;-90
2022/09/23 09:10:28;;;;;;;;;;;;;;;21.24;39.02;100295.63;4408490;32;19994;-87
2022/09/23 09:13:01;;;;;;;;;;;;;;;21.39;39.82;100293.63;4397171;32;20016;-86
2022/09/23 09:15:27;;;;;;;;;;;;;;;21.48;39.95;100288.16;4409405;32;19985;-85
2022/09/23 09:18:00;;;;;;;;;;;;;;;21.56;40.68;100287.09;4410874;32;20645;-87
2022/09/23 09:20:41;;;;;;;;;;;;;;;21.06;42.05;100296.03;4411864;32;20032;-84
2022/09/23 09:23:18;;;;;;;;;;;;;;;21.55;39.00;100285.34;4406245;32;20008;-85
2022/09/23 09:25:47;;;;;;;;;;;;;;;21.60;40.97;100287.87;4405254;32;20072;-89
2022/09/23 09:28:23;;;;;;;;;;;;;;;21.42;39.57;100288.31;4432203;32;19973;-87
2022/09/23 09:30:52;;;;;;;;;;;;;;;21.53;40.87;100283.66;4439017;32;20170;-84
2022/09/23 09:33:20;;;;;;;;;;;;;;;21.89;39.49;100281.09;4437393;32;20009;-87
2022/09/23 09:36:07;;;;;;;;;;;;;;;21.71;39.17;100275.34;4435914;32;19981;-87
2022/09/23 09:38:35;;;;;;;;;;;;;;;21.82;38.62;100278.63;4447953;32;20691;-90
2022/09/23 09:41:16;;;;;;;;;;;;;;;21.71;37.76;100270.06;4441552;32;20412;-85
2022/09/23 09:43:47;;;;;;;;;;;;;;;21.89;38.02;100268.81;4445909;32;19981;-86
2022/09/23 09:46:31;;;;;;;;;;;;;;;21.40;41.62;100274.28;4444056;32;20055;-86
2022/09/23 09:49:02;;;;;;;;;;;;;;;21.78;38.13;100274.28;4435320;32;20019;-85
2022/09/23 09:51:29;;;;;;;;;;;;;;;21.92;37.25;100262.56;4445805;32;19996;-84
2022/09/23 09:54:15;;;;;;;;;;;;;;;21.77;39.85;100269.06;4457775;32;19989;-85
2022/09/23 09:56:43;;;;;;;;;;;;;;;21.98;38.07;100258.00;4446609;32;20333;-87
2022/09/23 09:59:14;;;;;;;;;;;;;;;22.18;38.12;100259.34;4439794;32;20007;-86
2022/09/23 10:01:40;;;;;;;;;;;;;;;21.47;38.11;100254.81;4443539;32;19997;-86
2022/09/23 10:04:28;;;;;;;;;;;;;;;21.91;38.47;100256.44;4444715;32;20048;-90
2022/09/23 10:07:08;;;;;;;;;;;;;;;21.66;39.82;100248.22;4438592;32;20677;-87
2022/09/23 10:09:36;;;;;;;;;;;;;;;22.18;39.33;100249.66;4436002;32;19985;-90
2022/09/23 10:12:03;;;;;;;;;;;;;;;22.21;38.69;100254.88;4435942;32;20274;-86
2022/09/23 10:14:30;;;;;;;;;;;;;;;22.10;36.72;100254.22;4436491;32;19993;-86
2022/09/23 10:17:01;;;;;;;;;;;;;;;21.99;37.87;100248.34;4438027;32;19981;-90
2022/09/23 10:19:28;;;;;;;;;;;;;;;22.20;36.75;100247.84;4444278;32;21117;-90
2022/09/23 10:21:55;;;;;;;;;;;;;;;22.25;36.44;100245.97;4425017;32;20087;-87
2022/09/23 10:24:23;;;;;;;;;;;;;;;22.14;35.64;100242.69;4436236;32;20780;-86
2022/09/23 10:27:00;;;;;;;;;;;;;;;21.64;36.74;100241.28;4432517;32;20001;-84
2022/09/23 10:29:28;;;;;;;;;;;;;;;21.63;36.72;100243.03;4440426;32;20015;-84
2022/09/23 10:32:14;;;;;;;;;;;;;;;21.23;39.04;100245.66;4432527;32;19985;-89
2022/09/23 10:34:45;;;;;;;;;;;;;;;21.41;38.69;100244.41;4445711;32;19993;-89
2022/09/23 10:37:27;;;;;;;;;;;;;;;21.20;39.10;100257.13;4430578;32;19985;-85
2022/09/23 10:48:34;;;;;;;;;;;;;;;20.67;37.71;100238.84;4442295;32;20039;-84
2022/09/23 10:51:04;;;;;;;;;;;;;;;20.61;37.05;100235.47;4443864;32;20356;-85
2022/09/23 10:53:40;;;;;;;;;;;;;;;20.76;38.56;100240.44;4431837;32;19977;-86
2022/09/23 10:56:19;;;;;;;;;;;;;;;20.64;38.56;100241.56;4440534;32;19990;-83
2022/09/23 10:58:54;;;;;;;;;;;;;;;20.48;40.61;100249.69;4430142;32;20000;-86
2022/09/23 11:01:28;;;;;;;;;;;;;;;20.42;37.76;100235.78;4434986;32;19989;-83
2022/09/23 11:04:01;;;;;;;;;;;;;;;20.33;38.64;100240.34;4432417;32;20013;-85
2022/09/23 11:06:35;;;;;;;;;;;;;;;20.38;40.24;100234.09;4439044;32;19996;-81
2022/09/23 11:09:24;;;;;;;;;;;;;;;20.38;36.20;100228.81;4430404;32;20004;-80
2022/09/23 11:11:54;;;;;;;;;;;;;;;20.39;38.38;100235.84;4433976;32;19981;-79
2022/09/23 11:14:43;;;;;;;;;;;;;;;20.18;37.95;100230.94;4426409;32;20750;-79
2022/09/23 11:17:19;;;;;;;;;;;;;;;20.32;38.81;100234.19;4440414;32;19996;-79
2022/09/23 11:20:01;;;;;;;;;;;;;;;20.00;39.33;100231.25;4435194;32;19989;-85
2022/09/23 11:22:48;;;;;;;;;;;;;;;19.89;39.65;100229.66;4440177;32;19995;-79
2022/09/23 11:25:15;;;;;;;;;;;;;;;19.56;42.31;100225.78;4440491;32;20368;-81
2022/09/23 11:27:52;;;;;;;;;;;;;;;20.09;41.55;100225.84;4440370;32;19974;-80
2022/09/23 11:30:20;;;;;;;;;;;;;;;20.04;42.32;100219.78;4439628;32;20068;-89
2022/09/23 11:33:12;;;;;;;;;;;;;;;20.09;40.84;100215.34;4444872;32;20452;-80
2022/09/23 11:35:48;;;;;;;;;;;;;;;19.96;41.96;100215.53;4452064;32;19988;-91
2022/09/23 11:38:33;;;;;;;;;;;;;;;19.96;41.27;100209.41;4442358;32;19977;-82
2022/09/23 11:41:02;;;;;;;;;;;;;;;19.82;42.02;100208.78;4445966;32;20027;-89
2022/09/23 11:43:34;;;;;;;;;;;;;;;20.03;42.56;100199.66;4440929;32;20041;-91
2022/09/23 11:46:04;;;;;;;;;;;;;;;20.27;41.58;100194.00;4433343;32;19997;-89
2022/09/23 11:48:34;;;;;;;;;;;;;;;20.29;40.67;100186.91;4442560;32;19981;-85
2022/09/23 11:51:02;;;;;;;;;;;;;;;20.47;39.99;100195.38;4446184;32;19978;-91
2022/09/23 11:53:31;;;;;;;;;;;;;;;20.18;45.21;100191.53;4444676;32;20014;-83
2022/09/23 11:56:04;;;;;;;;;;;;;;;20.48;40.12;100192.72;4439485;32;19993;-86
2022/09/23 11:58:43;;;;;;;;;;;;;;;20.20;43.13;100197.63;4441265;32;19988;-82
2022/09/23 12:01:19;;;;;;;;;;;;;;;20.14;41.60;100188.09;4439322;32;19984;-81
2022/09/23 12:04:19;;;;;;;;;;;;;;;20.30;40.21;100187.81;4440288;32;20314;-82
2022/09/23 12:07:04;;;;;;;;;;;;;;;20.27;41.65;100188.72;4450681;32;19989;-89
2022/09/23 12:10:16;;;;;;;;;;;;;;;20.13;43.98;100188.09;4387034;32;19986;-84
2022/09/23 12:19:32;;;;;;;;;;;;;;;20.64;39.16;100172.28;4393148;32;20021;-90
2022/09/23 12:22:05;;;;;;;;;;;;;;;21.18;38.48;100172.00;4392889;32;20001;-90
2022/09/23 12:24:38;;;;;;;;;;;;;;;21.26;37.12;100159.56;4383518;32;20702;-89
2022/09/23 12:27:43;;;;;;;;;;;;;;;21.18;35.91;100158.84;4393596;32;20748;-93
2022/09/23 12:30:25;;;;;;;;;;;;;;;21.60;36.06;100148.25;4397848;32;20048;-91
2022/09/23 12:33:23;;;;;;;;;;;;;;;21.51;35.84;100146.72;4375720;32;19985;-90
2022/09/23 12:36:11;;;;;;;;;;;;;;;21.97;37.70;100144.72;4385980;32;20762;-87
2022/09/23 12:38:50;;;;;;;;;;;;;;;21.96;37.52;100140.34;4384431;32;19978;-87
2022/09/23 12:41:18;;;;;;;;;;;;;;;21.81;35.99;100145.09;4379957;32;20045;-91
2022/09/23 12:46:44;;;;;;;;;;;;;;;22.05;36.18;100142.75;4306403;28;20005;-92
2022/09/23 12:49:27;;;;;;;;;;;;;;;22.26;35.34;100136.06;4242776;33;20029;-90
2022/09/23 12:52:09;;;;;;;;;;;;;;;22.10;37.10;100132.06;4285311;33;20054;-91
2022/09/23 12:54:38;;;;;;;;;;;;;;;21.92;33.42;100120.22;4282166;33;20081;-91
2022/09/23 12:57:08;;;;;;;;;;;;;;;22.07;34.95;100119.81;4272277;33;19985;-90
2022/09/23 12:59:52;;;;;;;;;;;;;;;22.20;35.73;100118.63;4263896;33;19982;-88
2022/09/23 13:02:22;;;;;;;;;;;;;;;22.31;35.22;100113.06;4276053;33;20072;-91
2022/09/23 13:08:18;;;;;;;;;;;;;;;21.45;34.84;100109.13;4274230;33;20000;-94
2022/09/23 13:10:51;;;;;;;;;;;;;;;21.63;32.53;100103.38;4259008;33;20657;-92
2022/09/23 13:13:24;;;;;;;;;;;;;;;21.78;32.86;100103.00;4268900;33;20005;-90
2022/09/23 13:15:52;;;;;;;;;;;;;;;22.07;32.29;100104.00;4254487;33;20013;-95
2022/09/23 13:18:22;;;;;;;;;;;;;;;21.85;34.78;100097.56;4256753;33;20020;-93
2022/09/23 13:20:51;;;;;;;;;;;;;;;21.02;33.31;100095.16;4265469;33;20663;-95
2022/09/23 13:23:32;;;;;;;;;;;;;;;20.81;35.26;100101.78;4265986;33;20000;-93